Saint George Island, AK

10:46 PM HDT on May 26, 2015 (GMT -0900)
Dutch Harbor | | Change Station
CLOSE
Current Station
Airport
Location: Dutch Harbor,
Elevation: 13 ft
Nearby Weather Stations

Elev 13 ft 53.90 °N, 166.54 °W | Updated 50 minutes ago

Overcast
Overcast
46 °F
Feels Like 43 °F
N
6
Wind Variable Wind from ENE

Today
High -- | Low -- °F
--% Chance of Precip.
Yesterday
High -- | Low -- °F
Precip. -- in
5:43 AM 10:48 PM
Waxing Gibbous, 65% visible
Pressure 29.95 in
Visibility 10.0 miles
Clouds Scattered Clouds 3300 ft
Mostly Cloudy 4600 ft
Overcast 5500 ft
Windchill 43 °F
Dew Point 37 °F
Humidity 71%
Rainfall 0.49 in
Snow Depth Not available.
UV 0 out of 12
Pollen Not available.
Air Quality Not available.
Flu Activity Local Activity
METAR PADU 270656Z AUTO 07005KT 10SM SCT033 BKN046 OVC055 08/03 A2993 RMK AO2 SLP140 T00780028

More Conditions Fewer Conditions

Pressure 29.95 in
Visibility 10.0 miles
Clouds Scattered Clouds 3300 ft
Mostly Cloudy 4600 ft
Overcast 5500 ft
Windchill 43 °F
Dew Point 37 °F
Humidity 71%
Rainfall 0.49 in
Snow Depth Not available.
UV 0 out of 12
Pollen Not available.
Air Quality Not available.
Flu Activity Local Activity
METAR PADU 270656Z AUTO 07005KT 10SM SCT033 BKN046 OVC055 08/03 A2993 RMK AO2 SLP140 T00780028

More Conditions Fewer Conditions

10-Day Weather Forecast

Almanac

Astronomy

May. 26, 2015 Rise Set
Actual Time
Civil Twilight
Nautical Twilight
Astronomical Twilight
Moon
Length of Visible Light
Length of Day
Tomorrow will be .
, % of the Moon is Illuminated

Today's Extremes

State Highs State Lows

Community

WunderPhotos

Upload Photos

1,824,632 photos uploaded!

WunderBlogs® & News

Nearby

Air Quality

  Air Quality AQ Index Pollutant
Not available.

Snow Depth

Station Depth Elevation

Earthquake Activity

City Distance Mag. Time & Date
Minimum magnitude displayed is 2.5.

Coastal Water Temperatures

Place Temperature

Stations

Nearby Weather Stations

Station Location Temp. Windchill Dew Point Humidity Wind Precip. Elev Updated Type